Time;durP1;ratioP1;P1;durP2;ratioP2;P2;SDS_P1;SDS_P2;PMS_P1;PMS_P2;Temp;Humidity;BMP_temperature;BMP_pressure;BME280_temperature;BME280_humidity;BME280_pressure;Samples;Min_cycle;Max_cycle;Signal;HPM_P1;HPM_P2
2022/08/01 00:01:03;;;;;;;2.70;0.70;;;24.50;99.90;;;;;;4992639;28;20175;-76
2022/08/01 00:03:29;;;;;;;1.50;0.70;;;24.50;99.90;;;;;;4992700;28;20635;-76
2022/08/01 00:05:55;;;;;;;1.70;0.70;;;24.50;99.90;;;;;;4992054;28;20663;-75
2022/08/01 00:08:21;;;;;;;2.47;0.60;;;24.50;99.90;;;;;;4991191;28;20178;-75
2022/08/01 00:10:47;;;;;;;2.00;0.77;;;24.50;99.90;;;;;;4992276;28;20201;-76
2022/08/01 00:13:12;;;;;;;1.87;0.80;;;24.50;99.90;;;;;;4975170;28;20179;-76
2022/08/01 00:15:38;;;;;;;1.50;0.70;;;24.40;99.90;;;;;;4992138;28;20191;-76
2022/08/01 00:18:04;;;;;;;3.63;0.70;;;24.40;99.90;;;;;;4991769;28;20597;-76
2022/08/01 00:20:30;;;;;;;3.20;0.80;;;24.30;99.90;;;;;;4992163;28;20174;-75
2022/08/01 00:22:55;;;;;;;1.27;0.60;;;24.30;99.90;;;;;;4974938;28;20602;-76
2022/08/01 00:25:21;;;;;;;1.50;0.70;;;24.30;99.90;;;;;;4991586;28;20210;-76
2022/08/01 00:27:47;;;;;;;2.57;0.70;;;24.30;99.90;;;;;;4992138;28;20163;-76
2022/08/01 00:30:13;;;;;;;1.20;0.60;;;24.30;99.90;;;;;;4992311;28;20178;-77
2022/08/01 00:32:38;;;;;;;2.27;0.70;;;24.30;99.90;;;;;;4992167;28;20246;-77
2022/08/01 00:35:04;;;;;;;2.27;0.90;;;24.30;99.90;;;;;;4991609;28;20174;-76
2022/08/01 00:37:30;;;;;;;2.07;0.70;;;24.30;99.90;;;;;;4992139;28;20175;-77
2022/08/01 00:39:56;;;;;;;1.97;0.73;;;24.30;99.90;;;;;;4974687;28;20566;-77
2022/08/01 00:42:21;;;;;;;1.70;0.63;;;24.30;99.90;;;;;;4992072;28;20540;-77
2022/08/01 00:44:47;;;;;;;1.50;0.70;;;24.30;99.90;;;;;;4991547;28;20529;-77
2022/08/01 00:47:13;;;;;;;1.43;0.70;;;24.30;99.90;;;;;;4992065;28;20306;-77
2022/08/01 00:49:39;;;;;;;4.03;0.83;;;24.30;99.90;;;;;;4990787;28;20602;-77
2022/08/01 00:52:05;;;;;;;1.57;0.77;;;24.30;99.90;;;;;;4991038;28;20282;-77
2022/08/01 00:54:32;;;;;;;1.60;1.10;;;24.30;99.90;;;;;;4994179;28;20530;-77
2022/08/01 00:56:58;;;;;;;3.77;1.00;;;24.30;99.90;;;;;;4991836;28;21173;-77
2022/08/01 00:59:24;;;;;;;4.07;0.90;;;24.20;99.90;;;;;;4991983;28;20649;-76
2022/08/01 01:01:50;;;;;;;1.70;0.70;;;24.20;99.90;;;;;;4990942;28;20672;-77
2022/08/01 01:04:16;;;;;;;1.50;0.80;;;24.20;99.90;;;;;;4992126;28;21214;-77
2022/08/01 01:07:07;;;;;;;1.40;0.80;;;24.20;99.90;;;;;;4991378;28;20634;-77
2022/08/01 01:09:55;;;;;;;1.70;0.80;;;24.10;99.90;;;;;;4990684;28;20585;-77
2022/08/01 01:12:35;;;;;;;1.63;0.80;;;24.10;99.90;;;;;;4991887;28;20613;-77
2022/08/01 01:15:11;;;;;;;2.63;0.90;;;24.00;99.90;;;;;;4990210;28;20573;-77
2022/08/01 01:17:40;;;;;;;1.40;0.70;;;24.00;99.90;;;;;;4991757;28;20569;-77
2022/08/01 01:20:11;;;;;;;1.77;0.80;;;23.90;99.90;;;;;;4991768;28;20563;-77
2022/08/01 01:22:46;;;;;;;2.10;0.90;;;23.90;99.90;;;;;;4991600;28;20622;-77
2022/08/01 01:25:39;;;;;;;1.73;0.87;;;23.80;99.90;;;;;;4991319;28;20565;-77
2022/08/01 01:28:05;;;;;;;1.50;0.87;;;23.80;99.90;;;;;;4991680;28;20554;-76
2022/08/01 01:30:32;;;;;;;1.60;0.93;;;23.80;99.90;;;;;;4994049;28;21136;-77
2022/08/01 01:33:05;;;;;;;1.80;1.00;;;23.80;99.90;;;;;;4995030;28;20252;-77
2022/08/01 01:35:35;;;;;;;4.80;1.17;;;23.70;99.90;;;;;;4994645;28;20602;-76
2022/08/01 01:38:21;;;;;;;1.70;0.90;;;23.70;99.90;;;;;;4995113;28;20918;-77
2022/08/01 01:40:50;;;;;;;2.00;1.10;;;23.70;99.90;;;;;;4994807;28;20621;-76
2022/08/01 01:43:17;;;;;;;2.63;1.10;;;23.70;99.90;;;;;;4994964;28;20574;-76
2022/08/01 01:45:45;;;;;;;1.57;0.90;;;23.70;99.90;;;;;;4994500;28;20602;-77
2022/08/01 01:48:15;;;;;;;1.90;0.90;;;23.70;99.90;;;;;;4994661;28;20601;-76
2022/08/01 01:50:42;;;;;;;1.70;0.83;;;23.60;99.90;;;;;;4993721;28;20582;-76
2022/08/01 01:53:11;;;;;;;1.77;0.93;;;23.60;99.90;;;;;;4994922;28;20934;-76
2022/08/01 01:55:40;;;;;;;1.47;1.00;;;23.70;99.90;;;;;;4994317;28;21139;-76
2022/08/01 01:58:08;;;;;;;2.10;0.90;;;23.70;99.90;;;;;;4993532;28;21164;-76
2022/08/01 02:00:36;;;;;;;2.77;1.37;;;23.60;99.90;;;;;;4977424;28;21148;-76
2022/08/01 02:03:05;;;;;;;1.70;0.80;;;23.60;99.90;;;;;;4993327;28;21149;-76
2022/08/01 02:05:34;;;;;;;2.33;1.10;;;23.60;99.90;;;;;;4995594;28;20614;-75
2022/08/01 02:08:02;;;;;;;1.50;0.70;;;23.60;99.90;;;;;;4994858;28;20586;-76
2022/08/01 02:10:29;;;;;;;3.83;0.90;;;23.60;99.90;;;;;;4994717;28;20669;-76
2022/08/01 02:12:57;;;;;;;2.23;1.10;;;23.60;99.90;;;;;;4993365;28;20963;-76
2022/08/01 02:15:24;;;;;;;1.90;0.80;;;23.60;99.90;;;;;;4994114;28;20609;-76
2022/08/01 02:17:53;;;;;;;2.60;1.30;;;23.60;99.90;;;;;;4994487;28;20593;-76
2022/08/01 02:20:19;;;;;;;1.70;0.80;;;23.60;99.90;;;;;;4994416;28;20574;-76
2022/08/01 02:22:56;;;;;;;2.97;0.90;;;23.50;99.90;;;;;;4994467;28;21125;-76
2022/08/01 02:25:47;;;;;;;1.80;0.87;;;23.50;99.90;;;;;;4993793;28;20601;-76
2022/08/01 02:28:19;;;;;;;1.67;0.83;;;23.50;99.90;;;;;;4977037;28;20570;-78
2022/08/01 02:30:48;;;;;;;2.40;0.90;;;23.50;99.90;;;;;;4994676;28;20574;-77
2022/08/01 02:33:18;;;;;;;2.47;1.00;;;23.50;99.90;;;;;;4993929;28;20609;-77
2022/08/01 02:35:50;;;;;;;1.57;0.90;;;23.50;99.90;;;;;;4994296;28;20622;-77
2022/08/01 02:38:18;;;;;;;1.50;0.80;;;23.50;99.90;;;;;;4995276;28;20602;-76
2022/08/01 02:40:49;;;;;;;2.77;1.00;;;23.40;99.90;;;;;;4995003;28;20610;-77
2022/08/01 02:43:20;;;;;;;3.30;0.90;;;23.40;99.90;;;;;;4995172;28;20551;-77
2022/08/01 02:45:51;;;;;;;2.97;0.90;;;23.40;99.90;;;;;;4992205;28;20673;-77
2022/08/01 02:48:19;;;;;;;2.13;0.80;;;23.40;99.90;;;;;;4993747;28;20581;-77
2022/08/01 02:50:48;;;;;;;2.00;1.00;;;23.40;99.90;;;;;;4993785;28;20574;-77
2022/08/01 02:53:16;;;;;;;3.83;1.20;;;23.40;99.90;;;;;;4993754;28;20566;-76
2022/08/01 02:55:44;;;;;;;2.63;1.30;;;23.30;99.90;;;;;;4993113;28;20590;-76
2022/08/01 02:58:13;;;;;;;2.33;1.00;;;23.30;99.90;;;;;;4993655;28;20938;-76
2022/08/01 03:00:42;;;;;;;2.47;1.10;;;23.30;99.90;;;;;;4975847;28;20712;-76
2022/08/01 03:03:09;;;;;;;2.70;1.10;;;23.30;99.90;;;;;;4993533;28;20585;-77
2022/08/01 03:05:37;;;;;;;2.80;0.83;;;23.30;99.90;;;;;;4993064;28;20598;-77
2022/08/01 03:08:04;;;;;;;2.50;1.00;;;23.20;99.90;;;;;;4993393;28;20570;-76
2022/08/01 03:10:31;;;;;;;2.03;0.80;;;23.20;99.90;;;;;;4992124;28;20585;-77
2022/08/01 03:13:00;;;;;;;2.17;1.07;;;23.30;99.90;;;;;;4993229;28;20571;-76
2022/08/01 03:15:29;;;;;;;2.20;1.17;;;23.20;99.90;;;;;;4992717;28;20606;-76
2022/08/01 03:17:56;;;;;;;2.60;0.90;;;23.20;99.90;;;;;;4994730;28;20569;-77
2022/08/01 03:20:26;;;;;;;3.10;1.20;;;23.30;99.90;;;;;;4995283;28;20575;-76
2022/08/01 03:22:53;;;;;;;2.77;0.97;;;23.30;99.90;;;;;;4993038;28;20574;-77
2022/08/01 03:25:20;;;;;;;1.90;1.00;;;23.30;99.90;;;;;;4991341;28;20582;-77
2022/08/01 03:27:54;;;;;;;2.90;1.27;;;23.30;99.90;;;;;;4993072;28;20936;-77
2022/08/01 03:30:22;;;;;;;2.20;1.43;;;23.30;99.90;;;;;;4992880;28;20579;-77
2022/08/01 03:32:48;;;;;;;2.57;1.27;;;23.30;99.90;;;;;;4992783;28;20908;-76
2022/08/01 03:35:14;;;;;;;3.57;1.60;;;23.30;99.90;;;;;;4992351;28;20577;-76
2022/08/01 03:37:46;;;;;;;2.80;1.60;;;23.30;99.90;;;;;;4992867;28;20589;-76
2022/08/01 03:40:36;;;;;;;3.80;2.07;;;23.20;99.90;;;;;;4992869;28;20626;-76
2022/08/01 03:43:09;;;;;;;2.20;1.20;;;23.20;99.90;;;;;;4968154;28;20590;-76
2022/08/01 03:45:38;;;;;;;2.17;1.20;;;23.20;99.90;;;;;;4992046;28;20617;-77
2022/08/01 03:48:15;;;;;;;2.17;1.10;;;23.20;99.90;;;;;;4991327;28;20593;-77
2022/08/01 03:50:46;;;;;;;2.23;1.33;;;23.20;99.90;;;;;;4992651;28;20604;-76
2022/08/01 03:53:12;;;;;;;4.77;1.20;;;23.20;99.90;;;;;;4992233;28;21148;-76
2022/08/01 03:55:40;;;;;;;3.23;1.47;;;23.20;99.90;;;;;;4993119;28;20629;-76
2022/08/01 03:58:08;;;;;;;5.20;1.60;;;23.20;99.90;;;;;;4992432;28;20569;-76
2022/08/01 04:00:38;;;;;;;4.43;1.67;;;23.20;99.90;;;;;;4975043;28;20562;-76
2022/08/01 04:03:06;;;;;;;2.53;1.50;;;23.20;99.90;;;;;;4992475;28;20978;-76
2022/08/01 04:05:32;;;;;;;2.47;1.70;;;23.20;99.90;;;;;;4991957;28;20590;-76
2022/08/01 04:07:59;;;;;;;3.60;1.57;;;23.20;99.90;;;;;;4992635;28;20955;-76
2022/08/01 04:10:25;;;;;;;2.47;1.70;;;23.20;99.90;;;;;;4992358;28;20661;-76
2022/08/01 04:12:52;;;;;;;2.47;1.63;;;23.20;99.90;;;;;;4975027;28;20570;-77
2022/08/01 04:15:18;;;;;;;3.00;1.60;;;23.20;99.90;;;;;;4991804;28;20566;-77
2022/08/01 04:17:43;;;;;;;3.60;1.57;;;23.20;99.90;;;;;;4974858;28;20633;-76
2022/08/01 04:20:11;;;;;;;3.60;1.90;;;23.30;99.90;;;;;;4992171;28;20570;-77
2022/08/01 04:22:36;;;;;;;3.70;1.50;;;23.30;99.90;;;;;;4992139;28;20676;-77
2022/08/01 04:25:09;;;;;;;2.63;2.40;;;23.30;99.90;;;;;;4974409;28;20566;-77
2022/08/01 04:27:38;;;;;;;3.03;1.90;;;23.30;99.90;;;;;;4992142;28;20618;-76
2022/08/01 04:30:05;;;;;;;3.73;1.70;;;23.30;99.90;;;;;;4991969;28;20569;-77
2022/08/01 04:32:35;;;;;;;2.20;1.60;;;23.30;99.90;;;;;;4995629;28;20606;-77
2022/08/01 04:35:05;;;;;;;4.30;2.50;;;23.40;99.90;;;;;;4991615;28;20617;-76
2022/08/01 04:37:32;;;;;;;3.57;2.10;;;23.30;99.90;;;;;;5015538;28;20600;-76
2022/08/01 04:40:00;;;;;;;4.73;2.40;;;23.30;99.90;;;;;;5006163;28;20588;-76
2022/08/01 04:42:27;;;;;;;3.63;3.00;;;23.30;99.90;;;;;;5011630;28;20665;-77
2022/08/01 04:44:53;;;;;;;3.80;2.17;;;23.30;99.90;;;;;;5011231;28;21008;-77
2022/08/01 04:47:19;;;;;;;3.93;2.40;;;23.40;99.90;;;;;;5011515;28;20629;-77
2022/08/01 04:49:46;;;;;;;4.47;2.83;;;23.30;99.90;;;;;;5011358;28;20182;-77
2022/08/01 04:52:12;;;;;;;2.50;2.00;;;23.30;99.90;;;;;;5011796;28;20569;-77
2022/08/01 04:54:38;;;;;;;3.50;2.93;;;23.30;99.90;;;;;;5011147;28;20719;-77
2022/08/01 04:57:05;;;;;;;4.37;2.87;;;23.40;99.90;;;;;;5011599;28;20624;-76
2022/08/01 04:59:41;;;;;;;6.13;3.23;;;23.30;99.90;;;;;;5011897;28;20209;-76
2022/08/01 05:02:08;;;;;;;4.83;3.60;;;23.40;99.90;;;;;;5011437;28;20993;-76
2022/08/01 05:04:35;;;;;;;6.23;3.60;;;23.40;99.90;;;;;;5011342;28;20567;-77
2022/08/01 05:07:01;;;;;;;3.87;3.47;;;23.40;99.90;;;;;;4998567;28;21214;-76
2022/08/01 05:09:27;;;;;;;4.77;3.27;;;23.40;99.90;;;;;;5016023;28;20664;-76
2022/08/01 05:11:53;;;;;;;5.77;3.03;;;23.40;99.90;;;;;;5015050;28;20566;-76
2022/08/01 05:14:18;;;;;;;3.90;3.50;;;23.40;99.90;;;;;;4997433;28;20585;-76
2022/08/01 05:16:45;;;;;;;3.93;3.53;;;23.40;99.90;;;;;;5014666;28;20208;-76
2022/08/01 05:19:11;;;;;;;4.93;3.93;;;23.40;99.90;;;;;;5014997;28;20249;-77
2022/08/01 05:21:37;;;;;;;4.50;3.50;;;23.40;99.90;;;;;;5014745;28;20620;-77
2022/08/01 05:24:05;;;;;;;7.27;3.37;;;23.50;99.90;;;;;;5014816;28;21124;-78
2022/08/01 05:26:31;;;;;;;5.33;4.30;;;23.50;99.90;;;;;;5014221;28;20608;-78
2022/08/01 05:28:57;;;;;;;4.67;4.27;;;23.50;99.90;;;;;;5014562;28;20620;-77
2022/08/01 05:31:22;;;;;;;7.10;4.00;;;23.50;99.90;;;;;;5014526;28;20596;-78
2022/08/01 05:33:48;;;;;;;4.27;3.87;;;23.50;99.90;;;;;;5014283;28;20181;-77
2022/08/01 05:36:14;;;;;;;5.10;4.17;;;23.50;99.90;;;;;;4996655;28;20562;-77
2022/08/01 05:38:40;;;;;;;8.17;4.40;;;23.50;99.90;;;;;;5014387;28;20565;-78
2022/08/01 05:41:06;;;;;;;4.63;4.10;;;23.40;99.90;;;;;;5014343;28;20202;-78
2022/08/01 05:43:31;;;;;;;7.27;4.30;;;23.40;99.90;;;;;;5001482;28;20266;-78
2022/08/01 05:45:58;;;;;;;4.53;4.10;;;23.30;99.90;;;;;;5014399;28;20610;-78
2022/08/01 05:48:24;;;;;;;6.67;4.87;;;23.30;99.90;;;;;;4996825;28;20553;-78
2022/08/01 05:50:50;;;;;;;5.20;4.80;;;23.30;99.90;;;;;;5013609;28;20565;-78
2022/08/01 05:53:16;;;;;;;7.50;4.20;;;23.20;99.90;;;;;;5009034;28;20580;-78
2022/08/01 05:55:42;;;;;;;8.67;4.97;;;23.20;99.90;;;;;;4992940;28;20597;-78
2022/08/01 05:58:08;;;;;;;6.00;5.27;;;23.20;99.90;;;;;;4995368;28;20187;-79
2022/08/01 06:00:34;;;;;;;7.17;5.53;;;23.20;99.90;;;;;;4995020;28;20558;-78
2022/08/01 06:02:59;;;;;;;6.97;5.40;;;23.20;99.90;;;;;;4994548;28;20629;-78
2022/08/01 06:05:25;;;;;;;9.70;6.17;;;23.20;99.90;;;;;;4994287;28;20267;-79
2022/08/01 06:07:51;;;;;;;6.70;5.63;;;23.30;99.90;;;;;;4994615;28;20170;-78
2022/08/01 06:10:17;;;;;;;5.27;4.30;;;23.30;99.90;;;;;;4976946;28;20177;-78
2022/08/01 06:12:42;;;;;;;7.23;6.00;;;23.50;99.90;;;;;;4994381;28;20628;-78
2022/08/01 06:15:09;;;;;;;5.13;4.70;;;23.90;99.90;;;;;;4982591;28;20581;-79
2022/08/01 06:17:35;;;;;;;7.73;5.57;;;24.40;99.90;;;;;;5013508;28;20180;-79
2022/08/01 06:20:01;;;;;;;6.50;5.90;;;24.70;99.90;;;;;;5018477;28;20596;-79
2022/08/01 06:22:26;;;;;;;7.20;5.30;;;24.90;99.90;;;;;;5013871;28;20652;-78
2022/08/01 06:24:52;;;;;;;8.20;5.17;;;25.00;99.90;;;;;;5013244;28;20562;-79
2022/08/01 06:27:19;;;;;;;5.33;4.83;;;25.30;99.90;;;;;;4995284;28;20193;-79
2022/08/01 06:29:45;;;;;;;6.40;5.80;;;25.50;99.90;;;;;;4994597;28;20166;-79
2022/08/01 06:32:11;;;;;;;6.10;4.97;;;25.60;99.90;;;;;;5012962;28;20572;-79
2022/08/01 06:34:36;;;;;;;7.53;6.30;;;25.70;99.90;;;;;;5013386;28;20574;-79
2022/08/01 06:37:02;;;;;;;6.30;5.70;;;25.70;99.90;;;;;;5012100;28;20214;-78
2022/08/01 06:39:28;;;;;;;6.77;5.67;;;25.80;99.90;;;;;;5013495;28;20626;-77
2022/08/01 06:41:53;;;;;;;7.07;5.57;;;25.70;99.90;;;;;;5011872;28;20566;-77
2022/08/01 06:44:19;;;;;;;6.73;5.43;;;25.80;99.90;;;;;;4995902;28;20178;-78
2022/08/01 06:46:45;;;;;;;6.27;5.60;;;25.90;99.90;;;;;;5011738;28;20297;-78
2022/08/01 06:49:11;;;;;;;6.90;5.70;;;25.90;99.90;;;;;;5013245;28;20174;-77
2022/08/01 06:51:36;;;;;;;6.00;5.33;;;26.00;99.90;;;;;;5013202;28;20178;-78
2022/08/01 06:54:02;;;;;;;5.43;4.93;;;26.00;99.90;;;;;;5005868;28;20186;-77
2022/08/01 06:56:28;;;;;;;6.00;5.13;;;26.00;99.90;;;;;;4998657;28;20199;-77
2022/08/01 06:59:00;;;;;;;7.10;5.50;;;26.00;99.90;;;;;;4993696;28;20174;-77
2022/08/01 07:01:28;;;;;;;7.53;6.03;;;26.10;99.90;;;;;;4995559;28;20617;-77
2022/08/01 07:03:54;;;;;;;6.50;5.40;;;26.10;99.90;;;;;;5012634;28;20585;-77
2022/08/01 07:06:21;;;;;;;8.90;5.70;;;26.10;99.90;;;;;;5012428;28;20587;-77
2022/08/01 07:08:46;;;;;;;6.20;5.60;;;26.00;99.90;;;;;;5012774;28;20565;-78
2022/08/01 07:11:12;;;;;;;5.57;5.07;;;26.00;99.90;;;;;;4999087;28;20589;-78
2022/08/01 07:13:38;;;;;;;6.63;6.03;;;26.00;99.90;;;;;;4992899;28;20185;-77
2022/08/01 07:16:04;;;;;;;6.30;5.70;;;26.00;99.90;;;;;;4992523;28;20738;-77
2022/08/01 07:18:30;;;;;;;5.70;5.10;;;25.90;99.90;;;;;;4993796;28;20195;-77
2022/08/01 07:20:55;;;;;;;6.40;5.80;;;25.90;99.90;;;;;;5011898;28;20203;-77
2022/08/01 07:23:22;;;;;;;6.57;5.97;;;25.90;99.90;;;;;;5010122;28;20197;-77
2022/08/01 07:25:48;;;;;;;6.23;5.13;;;26.00;99.90;;;;;;5011941;28;20613;-77
2022/08/01 07:28:15;;;;;;;5.63;5.13;;;26.00;99.90;;;;;;5011642;28;20594;-76
2022/08/01 07:30:41;;;;;;;7.77;6.27;;;26.00;99.90;;;;;;4994716;28;20613;-76
2022/08/01 07:33:07;;;;;;;5.07;4.57;;;26.10;99.90;;;;;;4998503;28;20589;-76
2022/08/01 07:35:34;;;;;;;6.57;5.77;;;26.30;99.90;;;;;;5001326;28;20606;-76
2022/08/01 07:37:59;;;;;;;7.00;6.40;;;26.30;99.90;;;;;;4992576;28;20954;-76
2022/08/01 07:40:25;;;;;;;5.77;5.27;;;26.50;99.90;;;;;;4992682;28;20663;-76
2022/08/01 07:42:51;;;;;;;6.10;5.50;;;27.00;99.90;;;;;;5002132;28;20787;-75
2022/08/01 07:45:17;;;;;;;4.87;4.40;;;27.60;99.90;;;;;;5011484;28;20174;-75
2022/08/01 07:47:43;;;;;;;5.47;5.07;;;28.00;99.90;;;;;;5012146;28;20178;-76
2022/08/01 07:50:09;;;;;;;5.77;5.27;;;28.30;99.90;;;;;;5012043;28;20924;-75
2022/08/01 07:52:34;;;;;;;5.50;5.00;;;28.60;99.90;;;;;;5012265;28;20581;-77
2022/08/01 07:55:00;;;;;;;5.90;5.30;;;28.70;99.90;;;;;;4993915;28;20701;-77
2022/08/01 07:57:26;;;;;;;5.10;4.53;;;28.80;99.90;;;;;;5012104;28;20308;-77
2022/08/01 07:59:52;;;;;;;5.73;5.20;;;28.70;99.90;;;;;;5011935;28;20672;-76
2022/08/01 08:02:18;;;;;;;5.97;5.37;;;28.70;99.90;;;;;;5011964;28;20208;-76
2022/08/01 08:04:44;;;;;;;4.90;4.50;;;29.00;99.90;;;;;;5011685;28;20296;-76
2022/08/01 08:07:09;;;;;;;5.13;4.63;;;29.50;99.90;;;;;;5010681;28;20194;-76
2022/08/01 08:09:35;;;;;;;5.20;4.70;;;29.70;99.90;;;;;;5015606;28;20166;-76
2022/08/01 08:12:01;;;;;;;4.70;4.30;;;29.80;99.90;;;;;;5011944;28;20206;-76
2022/08/01 08:14:27;;;;;;;4.67;4.27;;;29.80;99.90;;;;;;5007927;28;20745;-76
2022/08/01 08:16:53;;;;;;;4.40;4.00;;;29.70;99.90;;;;;;5011219;28;20209;-76
2022/08/01 08:19:18;;;;;;;5.20;3.93;;;29.80;99.90;;;;;;4990244;28;21109;-77
2022/08/01 08:21:44;;;;;;;4.17;3.87;;;30.30;99.90;;;;;;4999060;28;20208;-77
2022/08/01 08:24:19;;;;;;;4.90;3.77;;;31.20;99.90;;;;;;5010226;28;20269;-77
2022/08/01 08:26:46;;;;;;;3.70;2.80;;;31.90;99.90;;;;;;5011292;28;20200;-76
2022/08/01 08:29:12;;;;;;;4.13;3.20;;;32.50;99.90;;;;;;5026197;28;20654;-76
2022/08/01 08:31:38;;;;;;;4.73;3.80;;;32.80;99.90;;;;;;5013169;28;20595;-76
2022/08/01 08:34:03;;;;;;;7.87;3.10;;;32.90;99.90;;;;;;5013454;28;20174;-76
2022/08/01 08:36:29;;;;;;;4.00;3.60;;;32.90;99.30;;;;;;5027594;28;20600;-76
2022/08/01 08:38:56;;;;;;;3.53;3.20;;;32.80;98.30;;;;;;5032127;28;20154;-76
2022/08/01 08:41:22;;;;;;;3.40;3.07;;;32.60;97.50;;;;;;5034220;28;20205;-77
2022/08/01 08:43:48;;;;;;;6.53;2.90;;;32.40;97.10;;;;;;5035006;28;20577;-77
2022/08/01 08:46:15;;;;;;;5.70;3.40;;;32.20;96.70;;;;;;5014930;28;20696;-77
2022/08/01 08:48:41;;;;;;;3.73;3.33;;;32.00;96.20;;;;;;5018596;28;20611;-77
2022/08/01 08:51:10;;;;;;;2.80;2.60;;;31.80;96.20;;;;;;4997978;28;20562;-76
2022/08/01 08:53:38;;;;;;;6.80;4.30;;;31.70;96.20;;;;;;5015349;28;20577;-77
2022/08/01 08:56:07;;;;;;;4.50;2.83;;;31.50;95.80;;;;;;5015071;28;20709;-77
2022/08/01 08:58:37;;;;;;;3.07;2.80;;;31.30;95.60;;;;;;5015034;28;20580;-78
2022/08/01 09:01:06;;;;;;;3.03;2.73;;;31.20;95.70;;;;;;5015104;28;20617;-77
2022/08/01 09:03:33;;;;;;;5.63;3.47;;;31.10;95.60;;;;;;5015043;28;20571;-76
2022/08/01 09:05:58;;;;;;;3.27;2.53;;;31.00;95.40;;;;;;5014868;28;20597;-77
2022/08/01 09:08:24;;;;;;;3.97;2.90;;;30.90;95.50;;;;;;5015001;28;21131;-77
2022/08/01 09:10:50;;;;;;;3.73;2.70;;;30.80;95.50;;;;;;5015034;28;20511;-77
2022/08/01 09:13:16;;;;;;;4.40;2.97;;;30.80;95.60;;;;;;5014968;28;20730;-77
2022/08/01 09:15:49;;;;;;;3.73;2.80;;;30.70;95.40;;;;;;5002441;28;20556;-77
2022/08/01 09:18:44;;;;;;;4.07;2.90;;;30.70;95.40;;;;;;4977979;28;20590;-76
2022/08/01 09:21:14;;;;;;;3.17;2.40;;;30.70;95.00;;;;;;4999543;28;20655;-76
2022/08/01 09:23:54;;;;;;;4.40;2.83;;;30.70;95.20;;;;;;5013311;28;20573;-76
2022/08/01 09:26:28;;;;;;;4.53;2.93;;;30.60;95.30;;;;;;5014237;28;20590;-75
2022/08/01 09:28:54;;;;;;;4.13;2.33;;;30.60;95.40;;;;;;5014739;28;20596;-76
2022/08/01 09:31:20;;;;;;;2.30;1.80;;;30.60;95.50;;;;;;5014350;28;21005;-75
2022/08/01 09:33:57;;;;;;;3.43;2.50;;;30.60;95.30;;;;;;5014518;28;20175;-76
2022/08/01 09:36:25;;;;;;;5.60;3.10;;;30.40;95.30;;;;;;5014014;28;20248;-75
2022/08/01 09:38:53;;;;;;;5.27;3.20;;;30.30;94.80;;;;;;5014568;28;20565;-75
2022/08/01 09:41:30;;;;;;;3.50;3.07;;;30.20;94.60;;;;;;5014116;28;20624;-76
2022/08/01 09:43:57;;;;;;;4.17;2.60;;;30.10;94.60;;;;;;5014433;28;20704;-76
2022/08/01 09:46:24;;;;;;;4.20;3.17;;;30.20;95.20;;;;;;5013486;28;20597;-76
2022/08/01 09:49:03;;;;;;;3.83;3.10;;;30.60;96.20;;;;;;5012990;28;20581;-76
2022/08/01 09:51:35;;;;;;;3.10;2.80;;;31.30;96.40;;;;;;5011770;28;20652;-76
2022/08/01 09:54:04;;;;;;;2.83;2.30;;;31.80;95.70;;;;;;5013752;28;20600;-76
2022/08/01 09:56:42;;;;;;;2.80;2.60;;;32.20;94.70;;;;;;5013217;28;20609;-76
2022/08/01 09:59:09;;;;;;;3.47;2.27;;;32.40;93.60;;;;;;5015706;28;20570;-76
2022/08/01 10:01:48;;;;;;;3.53;1.97;;;32.60;93.40;;;;;;5010018;28;20661;-76
2022/08/01 10:04:22;;;;;;;1.97;1.37;;;32.80;92.40;;;;;;4994548;28;21145;-76
2022/08/01 10:06:52;;;;;;;2.53;2.33;;;32.90;92.10;;;;;;4993701;28;20649;-76
2022/08/01 10:09:29;;;;;;;2.47;2.27;;;33.10;91.50;;;;;;4993980;28;20567;-76
2022/08/01 10:11:56;;;;;;;3.57;2.10;;;33.20;91.30;;;;;;4993240;28;20583;-76
2022/08/01 10:14:24;;;;;;;3.40;2.30;;;33.30;90.60;;;;;;4997924;28;21004;-75
2022/08/01 10:16:53;;;;;;;2.63;2.00;;;33.30;89.60;;;;;;5013417;28;20608;-76
2022/08/01 10:19:23;;;;;;;2.57;2.00;;;33.30;88.70;;;;;;5013599;28;20576;-75
2022/08/01 10:21:53;;;;;;;3.40;1.90;;;33.20;87.30;;;;;;4996130;28;20966;-75
2022/08/01 10:24:23;;;;;;;3.03;2.30;;;33.10;86.90;;;;;;5013453;28;21125;-75
2022/08/01 10:26:54;;;;;;;3.67;2.13;;;32.90;85.50;;;;;;4995753;28;20640;-76
2022/08/01 10:29:22;;;;;;;4.53;2.00;;;32.70;85.20;;;;;;5013472;28;20566;-75
2022/08/01 10:31:48;;;;;;;3.00;1.97;;;32.60;85.30;;;;;;5012459;28;20573;-75
2022/08/01 10:34:17;;;;;;;2.20;1.63;;;32.40;84.70;;;;;;5013692;28;20624;-76
2022/08/01 10:36:44;;;;;;;3.23;2.07;;;32.30;85.40;;;;;;4995466;28;20621;-75
2022/08/01 10:39:13;;;;;;;2.90;1.63;;;32.50;86.70;;;;;;5013127;28;20609;-76
2022/08/01 10:41:39;;;;;;;2.10;1.70;;;32.80;86.30;;;;;;5013189;28;20666;-76
2022/08/01 10:44:07;;;;;;;2.37;1.50;;;33.10;85.50;;;;;;5013218;28;20566;-76
2022/08/01 10:46:37;;;;;;;2.90;1.80;;;33.20;83.70;;;;;;4995054;28;20605;-75
2022/08/01 10:49:08;;;;;;;2.87;1.97;;;33.20;82.50;;;;;;5012934;28;21215;-75
2022/08/01 10:51:38;;;;;;;4.73;1.93;;;33.30;82.90;;;;;;5013045;28;20568;-76
2022/08/01 10:54:06;;;;;;;2.53;2.20;;;33.70;84.60;;;;;;5013035;28;20567;-75
2022/08/01 10:56:59;;;;;;;3.60;2.20;;;34.10;84.60;;;;;;5012402;28;20596;-76
2022/08/01 10:59:29;;;;;;;2.43;1.73;;;34.70;84.90;;;;;;5009752;28;20586;-75
2022/08/01 11:02:03;;;;;;;2.57;1.90;;;35.10;82.10;;;;;;5038308;22;22354;-74
2022/08/01 11:04:53;;;;;;;2.80;1.37;;;35.30;78.70;;;;;;4989010;28;21157;-77
2022/08/01 11:07:34;;;;;;;1.57;1.33;;;35.40;76.90;;;;;;5032619;28;20941;-76
2022/08/01 11:10:16;;;;;;;2.23;1.40;;;35.30;75.00;;;;;;5032656;28;20567;-76
2022/08/01 11:12:42;;;;;;;1.90;1.60;;;35.00;73.50;;;;;;5021026;28;20612;-77
2022/08/01 11:15:11;;;;;;;3.77;1.67;;;34.80;73.20;;;;;;5036006;28;20568;-76
2022/08/01 11:17:39;;;;;;;3.30;1.40;;;34.50;71.70;;;;;;4999824;28;20643;-77
2022/08/01 11:20:26;;;;;;;3.67;1.70;;;34.20;71.30;;;;;;4991092;28;20580;-77
2022/08/01 11:23:01;;;;;;;2.13;1.60;;;34.00;71.00;;;;;;5021987;28;20665;-76
2022/08/01 11:25:48;;;;;;;2.27;1.47;;;33.70;70.90;;;;;;5007617;28;20601;-77
2022/08/01 11:28:14;;;;;;;1.70;1.10;;;33.50;71.70;;;;;;5008496;28;20623;-77
2022/08/01 11:31:08;;;;;;;1.90;1.53;;;33.60;73.80;;;;;;5009653;28;20595;-77
2022/08/01 11:33:44;;;;;;;2.10;1.40;;;33.80;75.10;;;;;;4978451;28;20208;-77
2022/08/01 11:36:15;;;;;;;2.60;1.77;;;34.00;74.80;;;;;;5011528;28;20993;-77
2022/08/01 11:38:59;;;;;;;2.63;1.90;;;34.10;72.80;;;;;;5011789;28;20575;-78
2022/08/01 11:41:28;;;;;;;2.40;1.80;;;34.20;71.40;;;;;;5010525;28;20627;-76
2022/08/01 11:44:10;;;;;;;2.50;2.00;;;34.20;70.80;;;;;;5011929;28;20598;-77
2022/08/01 11:46:59;;;;;;;2.60;2.00;;;34.20;69.60;;;;;;5011080;28;20590;-77
2022/08/01 11:49:36;;;;;;;2.03;1.63;;;34.00;67.50;;;;;;5012005;28;20574;-78
2022/08/01 11:52:09;;;;;;;2.47;1.33;;;33.90;66.90;;;;;;5013355;28;21028;-77
2022/08/01 11:54:40;;;;;;;3.20;1.33;;;33.80;66.90;;;;;;5010099;28;20596;-77
2022/08/01 11:57:12;;;;;;;1.90;1.10;;;33.70;66.30;;;;;;5011629;28;20953;-77
2022/08/01 11:59:48;;;;;;;1.87;0.97;;;33.70;65.40;;;;;;5011545;28;20579;-77
2022/08/01 12:02:26;;;;;;;1.80;1.37;;;33.80;65.20;;;;;;5009649;28;20704;-77
2022/08/01 12:04:55;;;;;;;2.00;1.57;;;33.90;65.80;;;;;;4998132;28;20581;-77
2022/08/01 12:07:22;;;;;;;2.77;1.17;;;34.00;65.50;;;;;;4990721;28;20581;-77
2022/08/01 12:09:48;;;;;;;1.90;1.30;;;33.90;64.30;;;;;;4991993;28;20581;-77
2022/08/01 12:12:18;;;;;;;1.60;1.20;;;33.90;63.70;;;;;;4990531;28;20615;-77
2022/08/01 12:14:45;;;;;;;2.53;1.63;;;33.70;62.80;;;;;;4991125;28;20563;-77
2022/08/01 12:17:11;;;;;;;2.57;1.40;;;33.50;62.70;;;;;;4990717;28;20577;-77
2022/08/01 12:19:38;;;;;;;4.50;1.10;;;33.30;62.80;;;;;;4990708;28;21464;-77
2022/08/01 12:22:05;;;;;;;1.90;1.00;;;33.00;62.80;;;;;;4990179;28;20207;-76
2022/08/01 12:24:31;;;;;;;1.90;1.00;;;32.80;63.60;;;;;;4991904;28;20664;-77
2022/08/01 12:26:56;;;;;;;1.60;1.20;;;32.60;64.10;;;;;;4991553;28;20619;-77
2022/08/01 12:29:37;;;;;;;1.80;1.40;;;32.40;64.60;;;;;;4992164;28;20166;-76
2022/08/01 12:32:04;;;;;;;2.23;1.30;;;32.40;65.30;;;;;;5008936;28;20204;-75
2022/08/01 12:34:33;;;;;;;3.10;1.50;;;32.40;65.90;;;;;;5011301;28;20602;-76
2022/08/01 12:37:02;;;;;;;2.33;1.27;;;32.40;64.80;;;;;;4993478;28;20562;-76
2022/08/01 12:39:31;;;;;;;2.50;1.60;;;32.30;64.30;;;;;;5011616;28;20959;-76
2022/08/01 12:41:57;;;;;;;1.97;1.63;;;32.30;64.00;;;;;;5009768;28;20779;-77
2022/08/01 12:44:23;;;;;;;1.77;1.20;;;32.10;63.30;;;;;;5011152;28;20656;-77
2022/08/01 12:46:49;;;;;;;3.80;1.10;;;32.00;63.70;;;;;;5009489;28;20170;-77
2022/08/01 12:49:15;;;;;;;2.37;1.20;;;31.90;63.10;;;;;;5009742;28;20500;-77
2022/08/01 12:51:41;;;;;;;1.77;1.07;;;31.80;63.40;;;;;;5011016;28;20624;-77
2022/08/01 12:54:09;;;;;;;1.97;1.17;;;31.70;63.60;;;;;;5010133;28;20580;-75
2022/08/01 12:56:36;;;;;;;2.23;1.00;;;31.60;64.00;;;;;;5010591;28;20570;-77